Time;durP1;ratioP1;P1;durP2;ratioP2;P2;SDS_P1;SDS_P2;PMS_P1;PMS_P2;Temp;Humidity;BMP_temperature;BMP_pressure;BME280_temperature;BME280_humidity;BME280_pressure;Samples;Min_cycle;Max_cycle;Signal;HPM_P1;HPM_P2
2023/04/19 00:01:38;;;;;;;;;;;;;;;;;;5069327;28;19947;-53
2023/04/19 00:04:04;;;;;;;;;;;;;;;;;;5064216;28;19919;-52
2023/04/19 00:06:30;;;;;;;;;;;;;;;;;;5067651;28;19915;-52
2023/04/19 00:08:56;;;;;;;;;;;;;;;;;;5066393;28;19944;-52
2023/04/19 00:11:22;;;;;;;;;;;;;;;;;;5069640;28;20026;-53
2023/04/19 00:13:48;;;;;;;;;;;;;;;;;;5069144;28;19958;-52
2023/04/19 00:16:14;;;;;;;;;;;;;;;;;;5070877;28;19908;-52
2023/04/19 00:18:40;;;;;;;;;;;;;;;;;;5067881;28;19940;-52
2023/04/19 00:21:06;;;;;;;;;;;;;;;;;;5072471;28;19923;-52
2023/04/19 00:23:32;;;;;;;;;;;;;;;;;;5059941;28;19998;-52
2023/04/19 00:25:58;;;;;;;;;;;;;;;;;;5063387;28;20021;-52
2023/04/19 00:28:25;;;;;;;;;;;;;;;;;;5066935;28;19951;-52
2023/04/19 00:30:51;;;;;;;;;;;;;;;;;;5072725;28;19966;-53
2023/04/19 00:33:17;;;;;;;;;;;;;;;;;;5071535;28;19944;-53
2023/04/19 00:35:42;;;;;;;;;;;;;;;;;;5058001;28;20287;-53
2023/04/19 00:38:09;;;;;;;;;;;;;;;;;;5067455;28;19954;-53
2023/04/19 00:40:35;;;;;;;;;;;;;;;;;;5060636;28;19919;-53
2023/04/19 00:43:00;;;;;;;;;;;;;;;;;;5061949;28;19944;-52
2023/04/19 00:45:26;;;;;;;;;;;;;;;;;;5067739;28;20375;-53
2023/04/19 00:47:52;;;;;;;;;;;;;;;;;;5066824;28;19923;-52
2023/04/19 00:50:18;;;;;;;;;;;;;;;;;;5060314;28;20374;-52
2023/04/19 00:52:44;;;;;;;;;;;;;;;;;;5063348;28;19952;-52
2023/04/19 00:55:10;;;;;;;;;;;;;;;;;;5068136;28;19944;-52
2023/04/19 00:57:36;;;;;;;;;;;;;;;;;;5062814;28;20445;-52
2023/04/19 01:00:05;;;;;;;;;;;;;;;;;;5068826;28;20408;-53
2023/04/19 01:02:31;;;;;;;;;;;;;;;;;;5056218;28;19995;-52
2023/04/19 01:04:57;;;;;;;;;;;;;;;;;;5064073;28;20015;-52
2023/04/19 01:07:23;;;;;;;;;;;;;;;;;;5058197;28;20551;-52
2023/04/19 01:09:49;;;;;;;;;;;;;;;;;;5069781;28;20659;-52
2023/04/19 01:12:15;;;;;;;;;;;;;;;;;;5068445;28;19919;-52
2023/04/19 01:14:41;;;;;;;;;;;;;;;;;;5062848;28;19904;-53
2023/04/19 01:17:07;;;;;;;;;;;;;;;;;;5069853;28;19981;-52
2023/04/19 01:19:33;;;;;;;;;;;;;;;;;;5069154;28;19919;-52
2023/04/19 01:22:01;;;;;;;;;;;;;;;;;;5070960;28;19911;-52
2023/04/19 01:24:27;;;;;;;;;;;;;;;;;;5069937;28;20411;-52
2023/04/19 01:26:53;;;;;;;;;;;;;;;;;;5069332;28;19959;-52
2023/04/19 01:29:20;;;;;;;;;;;;;;;;;;5061190;28;20351;-52
2023/04/19 01:31:50;;;;;;;;;;;;;;;;;;5053713;28;19915;-52
2023/04/19 01:34:16;;;;;;;;;;;;;;;;;;5067611;28;19918;-52
2023/04/19 01:36:42;;;;;;;;;;;;;;;;;;5059151;28;19987;-52
2023/04/19 01:39:08;;;;;;;;;;;;;;;;;;5065222;28;20006;-51
2023/04/19 01:41:34;;;;;;;;;;;;;;;;;;5052909;28;19966;-52
2023/04/19 01:44:00;;;;;;;;;;;;;;;;;;5069657;28;19916;-52
2023/04/19 01:46:25;;;;;;;;;;;;;;;;;;5065842;28;20320;-52
2023/04/19 01:48:51;;;;;;;;;;;;;;;;;;5071880;28;19908;-52
2023/04/19 01:51:20;;;;;;;;;;;;;;;;;;5069579;28;20008;-52
2023/04/19 01:53:51;;;;;;;;;;;;;;;;;;5071341;28;19938;-52
2023/04/19 01:56:17;;;;;;;;;;;;;;;;;;5058565;28;19931;-52
2023/04/19 01:58:43;;;;;;;;;;;;;;;;;;5067675;28;20333;-52
2023/04/19 02:01:11;;;;;;;;;;;;;;;;;;5070963;28;19908;-52
2023/04/19 02:03:37;;;;;;;;;;;;;;;;;;5068589;28;19916;-52
2023/04/19 02:06:03;;;;;;;;;;;;;;;;;;5071534;28;20003;-52
2023/04/19 02:08:29;;;;;;;;;;;;;;;;;;5070441;28;19995;-52
2023/04/19 02:10:55;;;;;;;;;;;;;;;;;;5069558;28;19920;-52
2023/04/19 02:13:21;;;;;;;;;;;;;;;;;;5067609;28;19951;-51
2023/04/19 02:15:47;;;;;;;;;;;;;;;;;;5070556;28;19985;-51
2023/04/19 02:18:13;;;;;;;;;;;;;;;;;;5070943;28;20237;-51
2023/04/19 02:20:39;;;;;;;;;;;;;;;;;;5066022;28;19955;-51
2023/04/19 02:23:05;;;;;;;;;;;;;;;;;;5059242;28;19967;-51
2023/04/19 02:25:31;;;;;;;;;;;;;;;;;;5064337;28;20495;-51
2023/04/19 02:27:57;;;;;;;;;;;;;;;;;;5057075;28;20025;-51
2023/04/19 02:30:23;;;;;;;;;;;;;;;;;;5063369;28;19932;-52
2023/04/19 02:32:49;;;;;;;;;;;;;;;;;;5068137;28;19959;-51
2023/04/19 02:35:16;;;;;;;;;;;;;;;;;;5069277;28;19919;-51
2023/04/19 02:37:41;;;;;;;;;;;;;;;;;;5069291;28;19908;-52
2023/04/19 02:40:07;;;;;;;;;;;;;;;;;;5067899;28;20386;-51
2023/04/19 02:42:33;;;;;;;;;;;;;;;;;;5069815;28;20375;-51
2023/04/19 02:44:59;;;;;;;;;;;;;;;;;;5068564;28;19936;-51
2023/04/19 02:47:25;;;;;;;;;;;;;;;;;;5066988;28;20006;-51
2023/04/19 02:49:51;;;;;;;;;;;;;;;;;;5069379;28;20474;-51
2023/04/19 02:52:17;;;;;;;;;;;;;;;;;;5065876;28;19944;-52
2023/04/19 02:54:43;;;;;;;;;;;;;;;;;;5063484;28;19940;-52
2023/04/19 02:57:09;;;;;;;;;;;;;;;;;;5061977;28;19909;-52
2023/04/19 02:59:35;;;;;;;;;;;;;;;;;;5069733;28;19947;-51
2023/04/19 03:02:01;;;;;;;;;;;;;;;;;;5066670;28;20732;-51
2023/04/19 03:04:28;;;;;;;;;;;;;;;;;;5068675;28;19912;-52
2023/04/19 03:06:54;;;;;;;;;;;;;;;;;;5069515;28;19952;-51
2023/04/19 03:09:20;;;;;;;;;;;;;;;;;;5066518;28;19912;-52
2023/04/19 03:11:46;;;;;;;;;;;;;;;;;;5067812;28;20346;-52
2023/04/19 03:14:12;;;;;;;;;;;;;;;;;;5069738;28;20005;-52
2023/04/19 03:16:38;;;;;;;;;;;;;;;;;;5069610;28;19908;-52
2023/04/19 03:19:04;;;;;;;;;;;;;;;;;;5065921;28;19955;-52
2023/04/19 03:21:30;;;;;;;;;;;;;;;;;;5069918;28;19912;-52
2023/04/19 03:23:56;;;;;;;;;;;;;;;;;;5066441;28;20418;-52
2023/04/19 03:26:22;;;;;;;;;;;;;;;;;;5067547;28;19965;-52
2023/04/19 03:28:48;;;;;;;;;;;;;;;;;;5067074;28;19952;-52
2023/04/19 03:31:14;;;;;;;;;;;;;;;;;;5069952;28;20003;-52
2023/04/19 03:33:40;;;;;;;;;;;;;;;;;;5039693;28;19967;-52
2023/04/19 03:36:06;;;;;;;;;;;;;;;;;;5066346;28;19912;-52
2023/04/19 03:38:32;;;;;;;;;;;;;;;;;;5066524;28;19958;-52
2023/04/19 03:40:58;;;;;;;;;;;;;;;;;;5068671;28;19908;-52
2023/04/19 03:43:24;;;;;;;;;;;;;;;;;;5064466;28;19947;-52
2023/04/19 03:45:50;;;;;;;;;;;;;;;;;;5068719;28;19940;-52
2023/04/19 03:48:16;;;;;;;;;;;;;;;;;;5067868;28;20045;-53
2023/04/19 03:50:42;;;;;;;;;;;;;;;;;;5066576;28;19916;-52
2023/04/19 03:53:08;;;;;;;;;;;;;;;;;;5067000;28;20279;-52
2023/04/19 03:55:34;;;;;;;;;;;;;;;;;;5067157;28;20340;-53
2023/04/19 03:58:00;;;;;;;;;;;;;;;;;;5060208;28;20325;-53
2023/04/19 04:00:26;;;;;;;;;;;;;;;;;;5065540;28;19912;-53
2023/04/19 04:02:52;;;;;;;;;;;;;;;;;;5057997;28;20549;-53
2023/04/19 04:05:18;;;;;;;;;;;;;;;;;;5066230;28;19908;-53
2023/04/19 04:07:44;;;;;;;;;;;;;;;;;;5065015;28;19915;-53
2023/04/19 04:10:11;;;;;;;;;;;;;;;;;;5067314;28;19963;-53
2023/04/19 04:12:37;;;;;;;;;;;;;;;;;;5066653;28;19959;-52
2023/04/19 04:15:03;;;;;;;;;;;;;;;;;;5068851;28;20396;-53
2023/04/19 04:17:29;;;;;;;;;;;;;;;;;;5059028;28;20001;-52
2023/04/19 04:19:55;;;;;;;;;;;;;;;;;;5068610;28;19908;-52
2023/04/19 04:22:21;;;;;;;;;;;;;;;;;;5066444;28;19913;-52
2023/04/19 04:24:48;;;;;;;;;;;;;;;;;;5067647;28;19939;-52
2023/04/19 04:27:19;;;;;;;;;;;;;;;;;;5066152;28;19916;-52
2023/04/19 04:29:44;;;;;;;;;;;;;;;;;;5068890;28;19914;-52
2023/04/19 04:32:13;;;;;;;;;;;;;;;;;;5065295;28;19944;-52
2023/04/19 04:34:39;;;;;;;;;;;;;;;;;;5065094;28;20360;-53
2023/04/19 04:37:07;;;;;;;;;;;;;;;;;;5060608;28;19909;-53
2023/04/19 04:39:37;;;;;;;;;;;;;;;;;;5060237;28;20443;-52
2023/04/19 04:42:06;;;;;;;;;;;;;;;;;;5062730;28;19912;-53
2023/04/19 04:44:33;;;;;;;;;;;;;;;;;;5050648;28;19928;-54
2023/04/19 04:46:59;;;;;;;;;;;;;;;;;;5063645;28;19919;-53
2023/04/19 04:49:25;;;;;;;;;;;;;;;;;;5062291;28;19915;-53
2023/04/19 04:51:51;;;;;;;;;;;;;;;;;;5060562;28;19963;-53
2023/04/19 04:54:17;;;;;;;;;;;;;;;;;;5040115;28;19908;-56
2023/04/19 04:56:43;;;;;;;;;;;;;;;;;;5067482;28;19939;-53
2023/04/19 04:59:10;;;;;;;;;;;;;;;;;;5067691;28;19951;-53
2023/04/19 05:01:36;;;;;;;;;;;;;;;;;;5071370;28;19912;-53
2023/04/19 05:04:03;;;;;;;;;;;;;;;;;;5053600;28;20011;-53
2023/04/19 05:06:29;;;;;;;;;;;;;;;;;;5072050;28;20351;-53
2023/04/19 05:08:55;;;;;;;;;;;;;;;;;;5071312;28;19962;-53
2023/04/19 05:11:21;;;;;;;;;;;;;;;;;;5063252;28;19995;-53
2023/04/19 05:13:47;;;;;;;;;;;;;;;;;;5068929;28;20355;-53
2023/04/19 05:16:13;;;;;;;;;;;;;;;;;;5069018;28;20011;-53
2023/04/19 05:18:40;;;;;;;;;;;;;;;;;;5070444;28;20493;-55
2023/04/19 05:21:09;;;;;;;;;;;;;;;;;;5069991;28;19908;-53
2023/04/19 05:23:35;;;;;;;;;;;;;;;;;;5071865;28;19969;-53
2023/04/19 05:26:02;;;;;;;;;;;;;;;;;;5066457;28;19908;-53
2023/04/19 05:28:28;;;;;;;;;;;;;;;;;;5062899;28;20416;-53
2023/04/19 05:30:54;;;;;;;;;;;;;;;;;;5071292;28;19954;-54
2023/04/19 05:33:20;;;;;;;;;;;;;;;;;;5070347;28;19919;-53
2023/04/19 05:35:46;;;;;;;;;;;;;;;;;;5068865;28;20367;-54
2023/04/19 05:38:12;;;;;;;;;;;;;;;;;;5071269;28;20574;-55
2023/04/19 05:40:39;;;;;;;;;;;;;;;;;;5070894;28;19989;-54
2023/04/19 05:43:05;;;;;;;;;;;;;;;;;;5071293;28;20257;-54
2023/04/19 05:45:31;;;;;;;;;;;;;;;;;;5069738;28;19911;-53
2023/04/19 05:47:57;;;;;;;;;;;;;;;;;;5071060;28;20372;-53
2023/04/19 05:50:23;;;;;;;;;;;;;;;;;;5069295;28;20338;-53
2023/04/19 05:52:49;;;;;;;;;;;;;;;;;;5071211;28;19912;-53
2023/04/19 05:55:16;;;;;;;;;;;;;;;;;;5068708;28;19908;-53
2023/04/19 05:57:43;;;;;;;;;;;;;;;;;;5070783;28;19916;-51
2023/04/19 06:00:10;;;;;;;;;;;;;;;;;;5070247;28;20007;-51
2023/04/19 06:02:36;;;;;;;;;;;;;;;;;;5070532;28;19909;-51
2023/04/19 06:05:03;;;;;;;;;;;;;;;;;;5070112;28;20279;-52
2023/04/19 06:07:29;;;;;;;;;;;;;;;;;;5069054;28;20522;-57
2023/04/19 06:09:55;;;;;;;;;;;;;;;;;;5063997;28;19917;-55
2023/04/19 06:12:21;;;;;;;;;;;;;;;;;;5066299;28;19998;-52
2023/04/19 06:14:47;;;;;;;;;;;;;;;;;;5068622;28;19999;-52
2023/04/19 06:17:15;;;;;;;;;;;;;;;;;;5060790;28;20317;-52
2023/04/19 06:19:41;;;;;;;;;;;;;;;;;;5057530;28;19939;-51
2023/04/19 06:22:07;;;;;;;;;;;;;;;;;;5070210;28;19962;-52
2023/04/19 06:24:33;;;;;;;;;;;;;;;;;;5068649;28;20332;-52
2023/04/19 06:27:01;;;;;;;;;;;;;;;;;;5066929;28;20455;-51
2023/04/19 06:29:27;;;;;;;;;;;;;;;;;;5065287;28;19920;-54
2023/04/19 06:31:53;;;;;;;;;;;;;;;;;;5070039;28;19927;-49
2023/04/19 06:34:19;;;;;;;;;;;;;;;;;;5070638;28;19909;-50
2023/04/19 06:36:45;;;;;;;;;;;;;;;;;;5069553;28;19958;-48
2023/04/19 06:39:11;;;;;;;;;;;;;;;;;;5068775;28;19909;-49
2023/04/19 06:41:37;;;;;;;;;;;;;;;;;;5067300;28;20637;-50
2023/04/19 06:44:03;;;;;;;;;;;;;;;;;;5070030;28;19913;-49
2023/04/19 06:46:29;;;;;;;;;;;;;;;;;;5067421;28;20384;-49
2023/04/19 06:48:55;;;;;;;;;;;;;;;;;;5067202;28;19912;-49
2023/04/19 06:51:21;;;;;;;;;;;;;;;;;;5069144;28;19912;-49
2023/04/19 06:53:47;;;;;;;;;;;;;;;;;;5066528;28;19915;-49
2023/04/19 06:56:13;;;;;;;;;;;;;;;;;;5063806;28;19912;-50
2023/04/19 06:58:39;;;;;;;;;;;;;;;;;;5068259;28;19944;-50
2023/04/19 07:01:05;;;;;;;;;;;;;;;;;;5067014;28;20026;-50
2023/04/19 07:03:31;;;;;;;;;;;;;;;;;;5066856;28;19980;-52
2023/04/19 07:05:57;;;;;;;;;;;;;;;;;;5061589;28;20437;-52
2023/04/19 07:08:23;;;;;;;;;;;;;;;;;;5048363;28;19955;-52
2023/04/19 07:10:49;;;;;;;;;;;;;;;;;;5061634;28;19955;-52
2023/04/19 07:13:15;;;;;;;;;;;;;;;;;;5058266;28;20357;-52
2023/04/19 07:15:41;;;;;;;;;;;;;;;;;;5062825;28;19951;-52
2023/04/19 07:18:09;;;;;;;;;;;;;;;;;;5057075;28;20440;-53
2023/04/19 07:20:35;;;;;;;;;;;;;;;;;;5061069;28;19912;-53
2023/04/19 07:23:01;;;;;;;;;;;;;;;;;;5062336;28;19954;-55
2023/04/19 07:25:27;;;;;;;;;;;;;;;;;;5065872;28;20336;-55
2023/04/19 07:27:53;;;;;;;;;;;;;;;;;;5058408;28;20293;-53
2023/04/19 07:30:19;;;;;;;;;;;;;;;;;;5056560;28;19967;-52
2023/04/19 07:32:45;;;;;;;;;;;;;;;;;;5053567;28;19908;-52
2023/04/19 07:35:11;;;;;;;;;;;;;;;;;;5058651;28;19959;-52
2023/04/19 07:37:37;;;;;;;;;;;;;;;;;;5065749;28;19912;-53
2023/04/19 07:40:04;;;;;;;;;;;;;;;;;;5053848;28;19959;-52
2023/04/19 07:42:30;;;;;;;;;;;;;;;;;;5059552;28;20316;-53
2023/04/19 07:44:56;;;;;;;;;;;;;;;;;;5036505;28;20003;-52
2023/04/19 07:47:22;;;;;;;;;;;;;;;;;;5059371;28;19970;-52
2023/04/19 07:49:48;;;;;;;;;;;;;;;;;;5054405;28;21386;-53
2023/04/19 07:52:14;;;;;;;;;;;;;;;;;;5058828;28;19955;-52
2023/04/19 07:54:40;;;;;;;;;;;;;;;;;;5055468;28;20249;-52
2023/04/19 07:57:06;;;;;;;;;;;;;;;;;;5058972;28;19908;-51
2023/04/19 07:59:32;;;;;;;;;;;;;;;;;;5058051;28;19913;-53
2023/04/19 08:01:58;;;;;;;;;;;;;;;;;;5056586;28;19927;-53
2023/04/19 08:04:24;;;;;;;;;;;;;;;;;;5056659;28;19913;-52
2023/04/19 08:06:51;;;;;;;;;;;;;;;;;;5054817;28;19990;-52
2023/04/19 08:09:17;;;;;;;;;;;;;;;;;;5056161;28;19908;-52
2023/04/19 08:11:43;;;;;;;;;;;;;;;;;;5060305;28;20335;-53
2023/04/19 08:14:09;;;;;;;;;;;;;;;;;;5056767;28;19915;-52
2023/04/19 08:16:35;;;;;;;;;;;;;;;;;;5058779;28;20004;-50
2023/04/19 08:19:01;;;;;;;;;;;;;;;;;;5055088;28;19936;-49
2023/04/19 08:21:27;;;;;;;;;;;;;;;;;;5056371;28;19954;-49
2023/04/19 08:23:53;;;;;;;;;;;;;;;;;;5053586;28;20168;-49
2023/04/19 08:26:19;;;;;;;;;;;;;;;;;;5054494;28;19916;-50
2023/04/19 08:28:45;;;;;;;;;;;;;;;;;;5056114;28;19947;-53
2023/04/19 08:31:11;;;;;;;;;;;;;;;;;;5062466;28;20271;-53
2023/04/19 08:33:37;;;;;;;;;;;;;;;;;;5060664;28;20008;-53
2023/04/19 08:36:03;;;;;;;;;;;;;;;;;;5056117;28;19912;-53
2023/04/19 08:38:29;;;;;;;;;;;;;;;;;;5063913;28;19959;-51
2023/04/19 08:40:55;;;;;;;;;;;;;;;;;;5057494;28;19993;-51
2023/04/19 08:43:21;;;;;;;;;;;;;;;;;;5055551;28;19913;-52
2023/04/19 08:45:47;;;;;;;;;;;;;;;;;;5063438;28;19966;-55
2023/04/19 08:48:13;;;;;;;;;;;;;;;;;;5057887;28;19915;-56
2023/04/19 08:50:40;;;;;;;;;;;;;;;;;;5065553;28;20074;-51
2023/04/19 08:53:06;;;;;;;;;;;;;;;;;;5067038;28;19995;-54
2023/04/19 08:55:32;;;;;;;;;;;;;;;;;;5056526;28;19995;-53
2023/04/19 08:57:58;;;;;;;;;;;;;;;;;;5060696;28;19940;-53
2023/04/19 09:00:24;;;;;;;;;;;;;;;;;;5058151;28;20347;-53
2023/04/19 09:02:50;;;;;;;;;;;;;;;;;;5061388;28;20240;-55
2023/04/19 09:05:16;;;;;;;;;;;;;;;;;;5061013;28;19915;-56
2023/04/19 09:07:42;;;;;;;;;;;;;;;;;;5059673;28;19913;-56
2023/04/19 09:10:08;;;;;;;;;;;;;;;;;;5064749;28;19952;-55
2023/04/19 09:12:34;;;;;;;;;;;;;;;;;;5054985;28;19913;-56
2023/04/19 09:15:01;;;;;;;;;;;;;;;;;;5059298;28;20015;-54
2023/04/19 09:17:27;;;;;;;;;;;;;;;;;;5060164;28;19920;-57
2023/04/19 09:19:53;;;;;;;;;;;;;;;;;;5062561;28;20002;-56
2023/04/19 09:22:20;;;;;;;;;;;;;;;;;;5060793;28;19912;-55
2023/04/19 09:24:46;;;;;;;;;;;;;;;;;;5039010;28;20054;-56
2023/04/19 09:27:12;;;;;;;;;;;;;;;;;;5056116;28;20005;-53
2023/04/19 09:29:38;;;;;;;;;;;;;;;;;;5058544;28;19912;-51
2023/04/19 09:32:04;;;;;;;;;;;;;;;;;;5067306;28;19924;-51
2023/04/19 09:34:30;;;;;;;;;;;;;;;;;;5054229;28;20359;-54
2023/04/19 09:36:56;;;;;;;;;;;;;;;;;;5038912;28;19955;-54
2023/04/19 09:39:22;;;;;;;;;;;;;;;;;;5061316;28;19947;-50
2023/04/19 09:41:48;;;;;;;;;;;;;;;;;;5054172;28;19959;-54
2023/04/19 09:44:15;;;;;;;;;;;;;;;;;;5063435;28;19955;-53
2023/04/19 09:46:49;;;;;;;;;;;;;;;;;;5058995;28;19955;-53
2023/04/19 09:49:15;;;;;;;;;;;;;;;;;;5060763;28;19995;-53
2023/04/19 09:51:41;;;;;;;;;;;;;;;;;;5060178;28;20019;-53
2023/04/19 09:54:07;;;;;;;;;;;;;;;;;;5064290;28;19913;-51
2023/04/19 09:56:33;;;;;;;;;;;;;;;;;;5058182;28;19917;-52
2023/04/19 09:58:59;;;;;;;;;;;;;;;;;;5059537;28;19951;-51
2023/04/19 10:01:25;;;;;;;;;;;;;;;;;;5060341;28;19955;-52
2023/04/19 10:03:51;;;;;;;;;;;;;;;;;;5061257;28;19923;-52
2023/04/19 10:06:17;;;;;;;;;;;;;;;;;;5060125;28;19955;-52
2023/04/19 10:08:44;;;;;;;;;;;;;;;;;;5060809;28;19982;-54
2023/04/19 10:11:10;;;;;;;;;;;;;;;;;;5064251;28;20486;-54
2023/04/19 10:13:36;;;;;;;;;;;;;;;;;;5060656;28;19991;-54
2023/04/19 10:16:02;;;;;;;;;;;;;;;;;;5056257;28;19955;-54
2023/04/19 10:18:28;;;;;;;;;;;;;;;;;;5058611;28;20280;-53
2023/04/19 10:20:54;;;;;;;;;;;;;;;;;;5058138;28;20433;-53
2023/04/19 10:23:20;;;;;;;;;;;;;;;;;;5062764;28;20365;-54
2023/04/19 10:25:46;;;;;;;;;;;;;;;;;;5059878;28;19912;-54
2023/04/19 10:28:12;;;;;;;;;;;;;;;;;;5056661;28;20293;-53
2023/04/19 10:30:38;;;;;;;;;;;;;;;;;;5059677;28;19951;-55
2023/04/19 10:33:05;;;;;;;;;;;;;;;;;;5059003;28;19908;-55
2023/04/19 10:35:31;;;;;;;;;;;;;;;;;;5056696;28;19919;-55
2023/04/19 10:37:57;;;;;;;;;;;;;;;;;;5062264;28;19952;-56
2023/04/19 10:40:23;;;;;;;;;;;;;;;;;;5058521;28;19948;-55
2023/04/19 10:42:49;;;;;;;;;;;;;;;;;;5058236;28;20045;-54
2023/04/19 10:45:15;;;;;;;;;;;;;;;;;;5054788;28;19944;-53
2023/04/19 10:47:41;;;;;;;;;;;;;;;;;;5062774;28;19947;-53
2023/04/19 10:50:07;;;;;;;;;;;;;;;;;;5064729;28;19947;-53
2023/04/19 10:52:33;;;;;;;;;;;;;;;;;;5067340;28;19962;-53
2023/04/19 10:54:59;;;;;;;;;;;;;;;;;;5069403;28;19908;-53
2023/04/19 10:57:26;;;;;;;;;;;;;;;;;;5063879;28;19908;-53
2023/04/19 10:59:52;;;;;;;;;;;;;;;;;;5068704;28;19920;-52
2023/04/19 11:02:18;;;;;;;;;;;;;;;;;;5067177;28;20360;-52
2023/04/19 11:04:45;;;;;;;;;;;;;;;;;;5064372;28;20316;-57
2023/04/19 11:07:11;;;;;;;;;;;;;;;;;;5067923;28;19908;-51
2023/04/19 11:09:37;;;;;;;;;;;;;;;;;;5056151;28;20006;-53
2023/04/19 11:12:04;;;;;;;;;;;;;;;;;;5067730;28;19943;-49
2023/04/19 11:14:30;;;;;;;;;;;;;;;;;;5062523;28;20340;-53
2023/04/19 11:16:56;;;;;;;;;;;;;;;;;;5060198;28;19927;-53
2023/04/19 11:19:22;;;;;;;;;;;;;;;;;;5066365;28;19959;-53
2023/04/19 11:21:48;;;;;;;;;;;;;;;;;;5067460;28;19978;-51
2023/04/19 11:24:18;;;;;;;;;;;;;;;;;;5068914;28;19946;-51
2023/04/19 11:26:47;;;;;;;;;;;;;;;;;;5061949;28;19916;-54
2023/04/19 11:29:13;;;;;;;;;;;;;;;;;;5066631;28;20280;-54
2023/04/19 11:31:39;;;;;;;;;;;;;;;;;;5051147;28;20011;-54
2023/04/19 11:34:05;;;;;;;;;;;;;;;;;;5052774;28;19916;-53
2023/04/19 11:36:31;;;;;;;;;;;;;;;;;;5066221;28;20328;-50
2023/04/19 11:38:57;;;;;;;;;;;;;;;;;;5065872;28;20320;-52
2023/04/19 11:41:23;;;;;;;;;;;;;;;;;;5066063;28;19908;-53
2023/04/19 11:43:49;;;;;;;;;;;;;;;;;;5069444;28;19995;-52
2023/04/19 11:46:16;;;;;;;;;;;;;;;;;;5067394;28;20384;-53
2023/04/19 11:48:42;;;;;;;;;;;;;;;;;;5068936;28;19908;-54
2023/04/19 11:51:08;;;;;;;;;;;;;;;;;;5069690;28;19916;-52
2023/04/19 11:53:34;;;;;;;;;;;;;;;;;;5069806;28;19909;-50
2023/04/19 11:56:00;;;;;;;;;;;;;;;;;;5068223;28;20321;-50
2023/04/19 11:58:28;;;;;;;;;;;;;;;;;;5050588;28;20372;-53
2023/04/19 12:00:54;;;;;;;;;;;;;;;;;;5069184;28;19912;-53
2023/04/19 12:03:21;;;;;;;;;;;;;;;;;;5071149;28;19916;-54
2023/04/19 12:05:47;;;;;;;;;;;;;;;;;;5054839;28;19908;-50
2023/04/19 12:08:14;;;;;;;;;;;;;;;;;;5053626;28;19912;-50
2023/04/19 12:10:40;;;;;;;;;;;;;;;;;;5055138;28;20234;-55
2023/04/19 12:13:06;;;;;;;;;;;;;;;;;;5050589;28;19908;-53
2023/04/19 12:15:32;;;;;;;;;;;;;;;;;;5070161;28;20321;-53
2023/04/19 12:17:58;;;;;;;;;;;;;;;;;;5072499;28;20386;-53
2023/04/19 12:20:24;;;;;;;;;;;;;;;;;;5073018;28;20423;-53
2023/04/19 12:22:50;;;;;;;;;;;;;;;;;;5072451;28;20700;-53
2023/04/19 12:25:16;;;;;;;;;;;;;;;;;;5057183;28;20345;-53
2023/04/19 12:27:42;;;;;;;;;;;;;;;;;;5067362;28;19920;-53
2023/04/19 12:30:08;;;;;;;;;;;;;;;;;;5071281;28;19948;-54
2023/04/19 12:32:34;;;;;;;;;;;;;;;;;;5072449;28;19909;-53
2023/04/19 12:35:00;;;;;;;;;;;;;;;;;;5073339;28;20009;-55
2023/04/19 12:37:26;;;;;;;;;;;;;;;;;;5072437;28;19948;-54
2023/04/19 12:39:52;;;;;;;;;;;;;;;;;;5053620;28;19912;-52
2023/04/19 12:42:19;;;;;;;;;;;;;;;;;;5072949;28;19904;-53
2023/04/19 12:44:45;;;;;;;;;;;;;;;;;;5067112;28;20372;-57
2023/04/19 12:47:11;;;;;;;;;;;;;;;;;;5082905;28;20287;-57
2023/04/19 12:49:37;;;;;;;;;;;;;;;;;;5066925;28;19932;-57
2023/04/19 12:52:03;;;;;;;;;;;;;;;;;;5058232;28;20136;-57
2023/04/19 12:54:29;;;;;;;;;;;;;;;;;;5071998;28;19909;-54
2023/04/19 12:56:56;;;;;;;;;;;;;;;;;;5066018;28;20029;-53
2023/04/19 12:59:22;;;;;;;;;;;;;;;;;;5072160;28;21323;-51
2023/04/19 13:01:48;;;;;;;;;;;;;;;;;;5067988;28;20007;-53
2023/04/19 13:04:15;;;;;;;;;;;;;;;;;;5071157;28;20295;-51
2023/04/19 13:06:41;;;;;;;;;;;;;;;;;;5071404;28;20322;-52
2023/04/19 13:09:08;;;;;;;;;;;;;;;;;;5070436;28;19923;-52
2023/04/19 13:11:34;;;;;;;;;;;;;;;;;;5070148;28;19920;-53
2023/04/19 13:14:00;;;;;;;;;;;;;;;;;;5068255;28;19908;-57
2023/04/19 13:16:26;;;;;;;;;;;;;;;;;;5069181;28;19985;-53
2023/04/19 13:18:53;;;;;;;;;;;;;;;;;;5051543;28;19916;-53
2023/04/19 13:21:19;;;;;;;;;;;;;;;;;;5070525;28;19905;-52
2023/04/19 13:23:45;;;;;;;;;;;;;;;;;;5069342;28;20342;-53
2023/04/19 13:26:12;;;;;;;;;;;;;;;;;;5069573;28;19920;-53
2023/04/19 13:28:38;;;;;;;;;;;;;;;;;;5069172;28;19908;-53
2023/04/19 13:31:04;;;;;;;;;;;;;;;;;;5070038;28;19924;-54
2023/04/19 13:33:31;;;;;;;;;;;;;;;;;;5069537;28;20003;-57
2023/04/19 13:35:57;;;;;;;;;;;;;;;;;;5064404;28;19919;-55
2023/04/19 13:38:23;;;;;;;;;;;;;;;;;;5069074;28;19946;-52
2023/04/19 13:40:50;;;;;;;;;;;;;;;;;;5064967;28;19908;-52
2023/04/19 13:43:16;;;;;;;;;;;;;;;;;;5068833;28;19927;-56
2023/04/19 13:45:42;;;;;;;;;;;;;;;;;;5050129;28;19916;-50
2023/04/19 13:48:08;;;;;;;;;;;;;;;;;;5070832;28;19909;-52
2023/04/19 13:50:34;;;;;;;;;;;;;;;;;;5070680;28;19916;-48
2023/04/19 13:53:01;;;;;;;;;;;;;;;;;;5066494;28;19931;-50
2023/04/19 13:55:27;;;;;;;;;;;;;;;;;;5049509;28;19955;-53
2023/04/19 13:57:53;;;;;;;;;;;;;;;;;;5067257;28;20316;-51
2023/04/19 14:00:19;;;;;;;;;;;;;;;;;;5070196;28;19999;-52
2023/04/19 14:02:45;;;;;;;;;;;;;;;;;;5070246;28;19916;-53
2023/04/19 14:05:11;;;;;;;;;;;;;;;;;;5066467;28;19963;-54
2023/04/19 14:07:38;;;;;;;;;;;;;;;;;;5047930;28;20292;-49
2023/04/19 14:10:06;;;;;;;;;;;;;;;;;;5070143;28;19916;-51
2023/04/19 14:12:32;;;;;;;;;;;;;;;;;;5068290;28;19912;-55
2023/04/19 14:14:58;;;;;;;;;;;;;;;;;;5059929;28;19951;-59
2023/04/19 14:17:25;;;;;;;;;;;;;;;;;;5037037;28;20446;-57
2023/04/19 14:19:51;;;;;;;;;;;;;;;;;;5062296;28;20371;-54
2023/04/19 14:22:17;;;;;;;;;;;;;;;;;;5066498;28;19970;-53
2023/04/19 14:24:45;;;;;;;;;;;;;;;;;;5066156;28;19916;-50
2023/04/19 14:27:11;;;;;;;;;;;;;;;;;;5064245;28;19920;-58
2023/04/19 14:29:37;;;;;;;;;;;;;;;;;;5069723;28;19931;-53
2023/04/19 14:32:03;;;;;;;;;;;;;;;;;;5066561;28;20379;-53
2023/04/19 14:34:31;;;;;;;;;;;;;;;;;;5070505;28;19931;-54
2023/04/19 14:36:57;;;;;;;;;;;;;;;;;;5063644;28;19946;-55
2023/04/19 14:39:23;;;;;;;;;;;;;;;;;;5061916;28;20716;-54
2023/04/19 14:41:50;;;;;;;;;;;;;;;;;;5069656;28;19920;-54
2023/04/19 14:44:16;;;;;;;;;;;;;;;;;;5067787;28;19908;-52
2023/04/19 14:46:42;;;;;;;;;;;;;;;;;;5069804;28;19940;-53
2023/04/19 14:49:07;;;;;;;;;;;;;;;;;;5062473;28;19963;-53
2023/04/19 14:51:34;;;;;;;;;;;;;;;;;;5062892;28;19971;-53
2023/04/19 14:54:00;;;;;;;;;;;;;;;;;;5060397;28;19908;-53
2023/04/19 14:56:26;;;;;;;;;;;;;;;;;;5074634;28;20003;-52
2023/04/19 14:58:52;;;;;;;;;;;;;;;;;;5069614;28;20010;-52
2023/04/19 15:01:20;;;;;;;;;;;;;;;;;;5049917;28;19919;-53
2023/04/19 15:03:47;;;;;;;;;;;;;;;;;;5062442;28;19919;-53
2023/04/19 15:06:13;;;;;;;;;;;;;;;;;;5070658;28;19919;-53
2023/04/19 15:08:41;;;;;;;;;;;;;;;;;;5045003;28;19956;-53
2023/04/19 15:11:07;;;;;;;;;;;;;;;;;;5065934;28;20403;-53
2023/04/19 15:13:34;;;;;;;;;;;;;;;;;;5044624;28;20268;-53
2023/04/19 15:16:02;;;;;;;;;;;;;;;;;;5052593;28;19905;-53
2023/04/19 15:18:28;;;;;;;;;;;;;;;;;;5069990;28;19908;-53
2023/04/19 15:20:55;;;;;;;;;;;;;;;;;;5069671;28;19966;-54
2023/04/19 15:23:21;;;;;;;;;;;;;;;;;;5066414;28;20370;-54
2023/04/19 15:25:48;;;;;;;;;;;;;;;;;;5068779;28;19908;-55
2023/04/19 15:28:14;;;;;;;;;;;;;;;;;;5068866;28;20388;-55
2023/04/19 15:30:40;;;;;;;;;;;;;;;;;;5061384;28;19916;-53
2023/04/19 15:33:07;;;;;;;;;;;;;;;;;;5067630;28;19955;-53
2023/04/19 15:35:34;;;;;;;;;;;;;;;;;;5067528;28;19927;-53
2023/04/19 15:38:00;;;;;;;;;;;;;;;;;;5066618;28;19912;-58
2023/04/19 15:40:31;;;;;;;;;;;;;;;;;;5064971;28;19954;-58
2023/04/19 15:42:57;;;;;;;;;;;;;;;;;;5061525;28;19912;-58
2023/04/19 15:45:24;;;;;;;;;;;;;;;;;;5068121;28;19919;-58
2023/04/19 15:47:50;;;;;;;;;;;;;;;;;;5069105;28;20363;-58
2023/04/19 15:50:16;;;;;;;;;;;;;;;;;;5069551;28;19935;-59
2023/04/19 15:52:42;;;;;;;;;;;;;;;;;;5067309;28;20365;-58
2023/04/19 15:55:08;;;;;;;;;;;;;;;;;;5069108;28;20394;-59
2023/04/19 15:57:34;;;;;;;;;;;;;;;;;;5065553;28;20007;-58
2023/04/19 16:00:00;;;;;;;;;;;;;;;;;;5067437;28;19908;-59
2023/04/19 16:02:26;;;;;;;;;;;;;;;;;;5069676;28;19955;-57
2023/04/19 16:04:52;;;;;;;;;;;;;;;;;;5069120;28;19948;-59
2023/04/19 16:07:19;;;;;;;;;;;;;;;;;;5065151;28;20131;-58
2023/04/19 16:09:45;;;;;;;;;;;;;;;;;;5065261;28;20356;-59
2023/04/19 16:12:10;;;;;;;;;;;;;;;;;;5061290;28;20332;-58
2023/04/19 16:14:37;;;;;;;;;;;;;;;;;;5064227;28;19935;-59
2023/04/19 16:17:03;;;;;;;;;;;;;;;;;;5060420;28;19916;-59
2023/04/19 16:19:29;;;;;;;;;;;;;;;;;;5069372;28;20440;-59
2023/04/19 16:21:55;;;;;;;;;;;;;;;;;;5069237;28;19947;-59
2023/04/19 16:24:21;;;;;;;;;;;;;;;;;;5059430;28;19913;-59
2023/04/19 16:26:47;;;;;;;;;;;;;;;;;;5059288;28;20291;-59
2023/04/19 16:29:13;;;;;;;;;;;;;;;;;;5050689;28;19912;-59
2023/04/19 16:31:39;;;;;;;;;;;;;;;;;;5068101;28;19920;-59
2023/04/19 16:34:05;;;;;;;;;;;;;;;;;;5069312;28;19915;-58
2023/04/19 16:36:31;;;;;;;;;;;;;;;;;;5068539;28;20010;-58
2023/04/19 16:38:58;;;;;;;;;;;;;;;;;;5053777;28;20186;-59